Time;durP1;ratioP1;P1;durP2;ratioP2;P2;SDS_P1;SDS_P2;PMS_P1;PMS_P2;Temp;Humidity;BMP_temperature;BMP_pressure;BME280_temperature;BME280_humidity;BME280_pressure;Samples;Min_cycle;Max_cycle;Signal;HPM_P1;HPM_P2
2023/04/07 00:00:39;;;;;;;;;2.75;2.00;;;;;;;;5054995;28;45356;-75
2023/04/07 00:03:06;;;;;;;;;1.50;1.00;;;;;;;;5037153;28;45505;-75
2023/04/07 00:05:31;;;;;;;;;5.00;3.75;;;;;;;;5054778;28;45560;-74
2023/04/07 00:07:57;;;;;;;;;2.50;2.50;;;;;;;;5054656;28;45636;-74
2023/04/07 00:10:22;;;;;;;;;3.50;2.25;;;;;;;;5054626;28;45424;-75
2023/04/07 00:12:47;;;;;;;;;2.00;0.75;;;;;;;;5054920;28;45437;-75
2023/04/07 00:15:13;;;;;;;;;2.25;2.00;;;;;;;;5053777;28;45389;-74
2023/04/07 00:17:38;;;;;;;;;2.00;2.00;;;;;;;;5055138;28;46230;-74
2023/04/07 00:20:03;;;;;;;;;3.00;2.50;;;;;;;;5054751;28;45472;-74
2023/04/07 00:22:28;;;;;;;;;4.75;3.75;;;;;;;;5046922;28;45445;-74
2023/04/07 00:24:54;;;;;;;;;3.00;1.75;;;;;;;;5034807;28;45499;-74
2023/04/07 00:27:19;;;;;;;;;3.00;3.00;;;;;;;;5034764;28;46136;-74
2023/04/07 00:29:45;;;;;;;;;2.25;2.25;;;;;;;;5034546;28;45434;-74
2023/04/07 00:32:10;;;;;;;;;3.00;1.75;;;;;;;;5033330;28;45464;-74
2023/04/07 00:34:36;;;;;;;;;2.00;2.00;;;;;;;;5039403;28;45369;-74
2023/04/07 00:37:01;;;;;;;;;2.00;1.00;;;;;;;;5054335;28;46132;-74
2023/04/07 00:39:26;;;;;;;;;2.00;2.00;;;;;;;;5054896;28;45405;-75
2023/04/07 00:41:51;;;;;;;;;2.00;2.00;;;;;;;;5054529;28;45386;-74
2023/04/07 00:44:16;;;;;;;;;5.25;2.00;;;;;;;;5054475;28;45457;-73
2023/04/07 00:46:42;;;;;;;;;4.50;3.00;;;;;;;;5054820;28;46801;-75
2023/04/07 00:49:07;;;;;;;;;2.00;2.00;;;;;;;;5054485;28;45317;-75
2023/04/07 00:51:32;;;;;;;;;2.00;2.00;;;;;;;;5054573;28;45358;-74
2023/04/07 00:53:58;;;;;;;;;2.75;2.75;;;;;;;;5052203;28;45382;-75
2023/04/07 00:56:24;;;;;;;;;1.75;1.75;;;;;;;;5034862;28;45628;-75
2023/04/07 00:58:49;;;;;;;;;2.25;2.25;;;;;;;;5034216;28;45428;-76
2023/04/07 01:01:18;;;;;;;;;1.00;0.75;;;;;;;;5033154;28;45425;-75
2023/04/07 01:03:57;;;;;;;;;3.00;2.00;;;;;;;;5032672;28;45584;-75
2023/04/07 01:06:25;;;;;;;;;1.50;1.50;;;;;;;;5034056;28;45940;-75
2023/04/07 01:08:53;;;;;;;;;1.00;1.00;;;;;;;;5046473;28;45452;-76
2023/04/07 01:11:22;;;;;;;;;2.00;2.00;;;;;;;;5058361;28;45394;-74
2023/04/07 01:13:47;;;;;;;;;2.00;2.00;;;;;;;;5058181;28;45342;-76
2023/04/07 01:16:16;;;;;;;;;2.75;2.00;;;;;;;;5057672;28;45438;-75
2023/04/07 01:18:43;;;;;;;;;3.00;3.00;;;;;;;;5048614;28;45571;-76
2023/04/07 01:21:16;;;;;;;;;2.25;2.25;;;;;;;;5038174;28;45466;-76
2023/04/07 01:23:59;;;;;;;;;3.50;1.75;;;;;;;;5038289;28;45887;-77
2023/04/07 01:26:29;;;;;;;;;6.75;3.50;;;;;;;;5038191;28;46114;-77
2023/04/07 01:29:04;;;;;;;;;1.00;1.00;;;;;;;;5038117;28;45530;-76
2023/04/07 01:31:29;;;;;;;;;2.50;1.00;;;;;;;;5037614;28;45446;-76
2023/04/07 01:33:56;;;;;;;;;1.00;1.00;;;;;;;;5037558;28;45354;-76
2023/04/07 01:36:22;;;;;;;;;2.75;2.00;;;;;;;;5057704;28;46355;-76
2023/04/07 01:38:48;;;;;;;;;3.50;2.50;;;;;;;;5058313;28;45437;-76
2023/04/07 01:41:14;;;;;;;;;5.50;3.00;;;;;;;;5058794;28;45368;-76
2023/04/07 01:43:40;;;;;;;;;3.25;2.00;;;;;;;;5058089;28;44779;-76
2023/04/07 01:46:05;;;;;;;;;2.00;2.00;;;;;;;;5058011;28;46370;-76
2023/04/07 01:48:31;;;;;;;;;1.00;1.00;;;;;;;;5058489;28;45289;-76
2023/04/07 01:50:56;;;;;;;;;4.00;2.00;;;;;;;;5058458;28;45362;-76
2023/04/07 01:53:22;;;;;;;;;1.50;1.00;;;;;;;;5056972;28;45615;-76
2023/04/07 01:55:47;;;;;;;;;1.75;1.00;;;;;;;;5058126;28;46486;-76
2023/04/07 01:58:13;;;;;;;;;1.00;1.00;;;;;;;;5058414;28;45406;-76
2023/04/07 02:00:38;;;;;;;;;3.00;3.00;;;;;;;;5063509;28;45339;-76
2023/04/07 02:03:10;;;;;;;;;2.75;2.25;;;;;;;;5058347;28;45348;-76
2023/04/07 02:05:37;;;;;;;;;4.75;2.50;;;;;;;;5062869;28;47197;-76
2023/04/07 02:08:04;;;;;;;;;2.50;1.00;;;;;;;;5062932;28;45497;-76
2023/04/07 02:10:31;;;;;;;;;2.25;2.25;;;;;;;;5056461;28;45382;-76
2023/04/07 02:12:57;;;;;;;;;1.50;1.50;;;;;;;;5058345;28;45588;-76
2023/04/07 02:15:24;;;;;;;;;2.00;2.00;;;;;;;;5057774;28;45616;-77
2023/04/07 02:17:51;;;;;;;;;2.50;1.25;;;;;;;;5057751;28;45320;-76
2023/04/07 02:20:17;;;;;;;;;2.25;2.25;;;;;;;;5057458;28;45285;-76
2023/04/07 02:22:43;;;;;;;;;6.25;3.00;;;;;;;;5058369;28;45454;-76
2023/04/07 02:25:24;;;;;;;;;3.25;1.50;;;;;;;;5067777;28;46329;-76
2023/04/07 02:27:50;;;;;;;;;2.00;2.00;;;;;;;;5077802;28;44684;-76
2023/04/07 02:30:15;;;;;;;;;1.75;1.75;;;;;;;;5079924;28;44787;-76
2023/04/07 02:32:41;;;;;;;;;1.75;1.25;;;;;;;;5078626;28;45216;-76
2023/04/07 02:35:06;;;;;;;;;3.25;2.25;;;;;;;;5077738;28;45434;-76
2023/04/07 02:37:31;;;;;;;;;6.50;6.50;;;;;;;;5078724;28;44705;-76
2023/04/07 02:39:57;;;;;;;;;11.75;10.75;;;;;;;;5080468;28;44665;-77
2023/04/07 02:42:22;;;;;;;;;23.00;21.50;;;;;;;;5079338;28;44868;-76
2023/04/07 02:44:47;;;;;;;;;43.25;37.00;;;;;;;;5077627;28;46972;-77
2023/04/07 02:47:12;;;;;;;;;35.00;32.00;;;;;;;;5079716;28;44755;-76
2023/04/07 02:49:37;;;;;;;;;32.25;30.50;;;;;;;;5079788;28;45356;-76
2023/04/07 02:52:03;;;;;;;;;29.25;25.25;;;;;;;;5078857;28;45262;-76
2023/04/07 02:54:28;;;;;;;;;20.75;17.50;;;;;;;;5078298;28;47105;-76
2023/04/07 02:56:53;;;;;;;;;25.25;21.00;;;;;;;;5078691;28;44666;-76
2023/04/07 02:59:18;;;;;;;;;13.25;13.00;;;;;;;;5080051;28;44707;-76
2023/04/07 03:01:44;;;;;;;;;16.25;14.00;;;;;;;;5078671;28;45420;-76
2023/04/07 03:04:09;;;;;;;;;9.50;8.75;;;;;;;;5077377;28;46463;-76
2023/04/07 03:06:34;;;;;;;;;8.50;7.00;;;;;;;;5076342;28;45311;-76
2023/04/07 03:08:59;;;;;;;;;6.25;4.50;;;;;;;;5057153;28;45418;-76
2023/04/07 03:11:25;;;;;;;;;8.50;7.00;;;;;;;;5060150;28;45459;-77
2023/04/07 03:13:50;;;;;;;;;4.00;3.00;;;;;;;;5055433;28;46710;-77
2023/04/07 03:16:15;;;;;;;;;7.75;3.75;;;;;;;;5056354;28;45397;-76
2023/04/07 03:18:41;;;;;;;;;3.00;3.00;;;;;;;;5056695;28;45339;-78
2023/04/07 03:21:06;;;;;;;;;1.50;1.00;;;;;;;;5056770;28;45346;-77
2023/04/07 03:23:31;;;;;;;;;5.75;4.00;;;;;;;;5046393;28;46540;-77
2023/04/07 03:25:57;;;;;;;;;1.50;1.50;;;;;;;;5035382;28;46022;-77
2023/04/07 03:28:22;;;;;;;;;3.75;3.00;;;;;;;;5036448;28;45288;-76
2023/04/07 03:30:47;;;;;;;;;5.25;3.75;;;;;;;;5036289;28;45403;-77
2023/04/07 03:33:12;;;;;;;;;4.75;4.00;;;;;;;;5035651;28;46499;-76
2023/04/07 03:35:38;;;;;;;;;4.75;4.75;;;;;;;;5053038;28;45405;-76
2023/04/07 03:38:03;;;;;;;;;3.25;3.25;;;;;;;;5056274;28;45406;-77
2023/04/07 03:40:28;;;;;;;;;5.50;3.00;;;;;;;;5055964;28;45526;-77
2023/04/07 03:42:53;;;;;;;;;3.00;3.00;;;;;;;;5056292;28;46166;-77
2023/04/07 03:45:18;;;;;;;;;3.75;3.75;;;;;;;;5056015;28;45327;-76
2023/04/07 03:47:44;;;;;;;;;4.75;3.00;;;;;;;;5056106;28;45430;-76
2023/04/07 03:50:09;;;;;;;;;4.75;3.00;;;;;;;;5056018;28;45364;-76
2023/04/07 03:52:34;;;;;;;;;6.00;3.00;;;;;;;;5055640;28;46228;-76
2023/04/07 03:55:00;;;;;;;;;4.50;2.00;;;;;;;;5055930;28;45369;-77
2023/04/07 03:57:26;;;;;;;;;5.25;5.00;;;;;;;;5055928;28;45462;-77
2023/04/07 03:59:51;;;;;;;;;7.25;4.00;;;;;;;;5055405;28;45312;-76
2023/04/07 04:02:16;;;;;;;;;4.25;3.00;;;;;;;;5055658;28;45621;-77
2023/04/07 04:04:42;;;;;;;;;6.00;3.50;;;;;;;;5054041;28;45382;-76
2023/04/07 04:07:07;;;;;;;;;2.00;2.00;;;;;;;;5056032;28;45453;-77
2023/04/07 04:09:32;;;;;;;;;4.75;3.00;;;;;;;;5055499;28;45458;-76
2023/04/07 04:11:57;;;;;;;;;2.75;2.25;;;;;;;;5055087;28;45558;-77
2023/04/07 04:14:23;;;;;;;;;2.75;2.00;;;;;;;;5054006;28;45397;-76
2023/04/07 04:16:48;;;;;;;;;3.00;2.25;;;;;;;;5055678;28;45525;-77
2023/04/07 04:19:13;;;;;;;;;3.75;2.25;;;;;;;;5055516;28;45413;-76
2023/04/07 04:21:38;;;;;;;;;5.50;4.75;;;;;;;;5055190;28;45539;-76
2023/04/07 04:24:04;;;;;;;;;3.00;1.00;;;;;;;;5055193;28;45441;-77
2023/04/07 04:26:29;;;;;;;;;2.75;2.75;;;;;;;;5055486;28;45441;-76
2023/04/07 04:28:54;;;;;;;;;3.50;2.50;;;;;;;;5054989;28;45452;-77
2023/04/07 04:31:20;;;;;;;;;2.75;2.25;;;;;;;;5055418;28;46430;-76
2023/04/07 04:33:45;;;;;;;;;4.00;2.25;;;;;;;;5055032;28;45705;-77
2023/04/07 04:36:10;;;;;;;;;4.00;4.00;;;;;;;;5055210;28;45363;-76
2023/04/07 04:38:36;;;;;;;;;5.25;3.00;;;;;;;;5055332;28;45407;-76
2023/04/07 04:41:01;;;;;;;;;5.00;1.25;;;;;;;;5055063;28;45438;-76
2023/04/07 04:43:26;;;;;;;;;3.75;2.00;;;;;;;;5055888;28;45477;-76
2023/04/07 04:45:51;;;;;;;;;5.00;3.00;;;;;;;;5058478;28;45657;-76
2023/04/07 04:48:16;;;;;;;;;2.25;2.25;;;;;;;;5040799;28;45890;-76
2023/04/07 04:50:42;;;;;;;;;4.00;3.00;;;;;;;;5058732;28;46475;-77
2023/04/07 04:53:07;;;;;;;;;3.00;2.50;;;;;;;;5058736;28;45433;-76
2023/04/07 04:55:33;;;;;;;;;3.00;3.00;;;;;;;;5057608;28;45406;-75
2023/04/07 04:57:58;;;;;;;;;5.00;3.00;;;;;;;;5058041;28;45537;-76
2023/04/07 05:00:23;;;;;;;;;5.00;4.00;;;;;;;;5058693;28;45544;-75
2023/04/07 05:02:48;;;;;;;;;7.75;3.75;;;;;;;;5058733;28;45343;-76
2023/04/07 05:05:14;;;;;;;;;2.75;2.00;;;;;;;;5058462;28;45561;-76
2023/04/07 05:07:39;;;;;;;;;4.00;3.00;;;;;;;;5058540;28;45368;-76
2023/04/07 05:10:07;;;;;;;;;3.00;3.00;;;;;;;;5056731;28;48061;-76
2023/04/07 05:12:33;;;;;;;;;6.50;4.75;;;;;;;;5057757;28;45398;-76
2023/04/07 05:14:58;;;;;;;;;3.00;3.00;;;;;;;;5058336;28;45374;-77
2023/04/07 05:17:23;;;;;;;;;4.00;3.00;;;;;;;;5058424;28;45584;-76
2023/04/07 05:19:48;;;;;;;;;3.50;3.50;;;;;;;;5039541;28;45374;-76
2023/04/07 05:22:14;;;;;;;;;5.75;4.50;;;;;;;;5037881;28;45358;-76
2023/04/07 05:24:39;;;;;;;;;2.75;2.00;;;;;;;;5038067;28;45539;-76
2023/04/07 05:27:04;;;;;;;;;6.50;4.00;;;;;;;;5036843;28;45579;-76
2023/04/07 05:29:30;;;;;;;;;5.25;4.75;;;;;;;;5038020;28;46926;-76
2023/04/07 05:31:55;;;;;;;;;8.75;5.75;;;;;;;;5036378;28;45863;-78
2023/04/07 05:34:20;;;;;;;;;6.50;4.00;;;;;;;;5041330;28;45411;-78
2023/04/07 05:36:46;;;;;;;;;8.00;6.50;;;;;;;;5058556;28;45437;-81
2023/04/07 05:39:11;;;;;;;;;4.50;4.50;;;;;;;;5058002;28;45467;-81
2023/04/07 05:41:36;;;;;;;;;5.75;5.75;;;;;;;;5058259;28;45439;-78
2023/04/07 05:44:01;;;;;;;;;7.25;5.00;;;;;;;;5057975;28;45419;-78
2023/04/07 05:46:28;;;;;;;;;7.50;5.75;;;;;;;;5058294;28;45418;-78
2023/04/07 05:48:53;;;;;;;;;5.00;4.50;;;;;;;;5056999;28;46480;-77
2023/04/07 05:51:18;;;;;;;;;9.00;5.00;;;;;;;;5056181;28;45393;-82
2023/04/07 05:53:43;;;;;;;;;5.00;5.00;;;;;;;;5057402;28;45311;-80
2023/04/07 05:56:08;;;;;;;;;10.75;6.00;;;;;;;;5056718;28;45375;-81
2023/04/07 05:58:34;;;;;;;;;6.25;5.00;;;;;;;;5047930;28;45728;-80
2023/04/07 06:00:59;;;;;;;;;5.75;5.75;;;;;;;;5036274;28;45653;-79
2023/04/07 06:03:24;;;;;;;;;5.00;4.75;;;;;;;;5055293;28;45360;-80
2023/04/07 06:05:49;;;;;;;;;6.50;6.25;;;;;;;;5057540;28;45389;-80
2023/04/07 06:08:15;;;;;;;;;8.75;7.00;;;;;;;;5056758;28;46508;-80
2023/04/07 06:10:40;;;;;;;;;7.75;6.00;;;;;;;;5047872;28;45368;-80
2023/04/07 06:13:06;;;;;;;;;9.00;8.00;;;;;;;;5035875;28;45906;-80
2023/04/07 06:15:31;;;;;;;;;9.25;8.00;;;;;;;;5037203;28;45434;-80
2023/04/07 06:17:56;;;;;;;;;13.00;8.00;;;;;;;;5036898;28;45360;-80
2023/04/07 06:20:21;;;;;;;;;8.75;8.00;;;;;;;;5035598;28;45422;-80
2023/04/07 06:22:47;;;;;;;;;6.50;6.50;;;;;;;;5037145;28;45422;-80
2023/04/07 06:25:12;;;;;;;;;5.50;5.50;;;;;;;;5037301;28;45691;-80
2023/04/07 06:27:37;;;;;;;;;8.50;5.00;;;;;;;;5037139;28;46570;-79
2023/04/07 06:30:02;;;;;;;;;6.50;5.50;;;;;;;;5036600;28;45325;-80
2023/04/07 06:32:28;;;;;;;;;9.75;9.75;;;;;;;;5036811;28;45367;-80
2023/04/07 06:34:53;;;;;;;;;9.50;7.00;;;;;;;;5044351;28;45403;-80
2023/04/07 06:37:18;;;;;;;;;8.00;6.25;;;;;;;;5056528;28;45397;-79
2023/04/07 06:39:44;;;;;;;;;10.25;8.00;;;;;;;;5057051;28;45550;-80
2023/04/07 06:42:09;;;;;;;;;11.50;8.00;;;;;;;;5056804;28;45359;-80
2023/04/07 06:44:34;;;;;;;;;14.50;10.50;;;;;;;;5056513;28;45425;-80
2023/04/07 06:46:59;;;;;;;;;5.00;4.75;;;;;;;;5056880;28;45557;-80
2023/04/07 06:49:25;;;;;;;;;8.25;8.25;;;;;;;;5055910;28;45543;-80
2023/04/07 06:51:50;;;;;;;;;9.50;9.50;;;;;;;;5056735;28;45485;-80
2023/04/07 06:54:15;;;;;;;;;10.00;9.00;;;;;;;;5056743;28;45419;-80
2023/04/07 06:56:41;;;;;;;;;11.25;8.50;;;;;;;;5056052;28;45380;-80
2023/04/07 06:59:06;;;;;;;;;10.75;9.00;;;;;;;;5056248;28;45844;-79
2023/04/07 07:01:32;;;;;;;;;5.50;5.00;;;;;;;;5055355;28;45387;-77
2023/04/07 07:03:57;;;;;;;;;10.50;10.50;;;;;;;;5056389;28;45448;-80
2023/04/07 07:06:22;;;;;;;;;11.50;9.00;;;;;;;;5053938;28;45990;-80
2023/04/07 07:08:47;;;;;;;;;10.75;10.75;;;;;;;;5053897;28;45414;-80
2023/04/07 07:11:12;;;;;;;;;10.00;10.00;;;;;;;;5055645;28;45558;-80
2023/04/07 07:13:38;;;;;;;;;9.50;8.75;;;;;;;;5056253;28;45327;-80
2023/04/07 07:16:03;;;;;;;;;13.25;10.25;;;;;;;;5055897;28;45352;-79
2023/04/07 07:18:28;;;;;;;;;10.00;9.25;;;;;;;;5056269;28;45386;-78
2023/04/07 07:20:53;;;;;;;;;10.75;7.50;;;;;;;;5055806;28;45342;-80
2023/04/07 07:23:19;;;;;;;;;12.25;10.00;;;;;;;;5056268;28;45443;-79
2023/04/07 07:25:44;;;;;;;;;13.00;10.00;;;;;;;;5055338;28;46043;-79
2023/04/07 07:28:09;;;;;;;;;10.75;9.50;;;;;;;;5054683;28;46228;-79
2023/04/07 07:30:35;;;;;;;;;11.75;11.00;;;;;;;;5056307;28;45396;-82
2023/04/07 07:33:00;;;;;;;;;8.00;7.00;;;;;;;;5056052;28;45347;-80
2023/04/07 07:35:25;;;;;;;;;10.75;10.25;;;;;;;;5055433;28;45426;-80
2023/04/07 07:37:51;;;;;;;;;9.00;6.75;;;;;;;;5055790;28;45292;-80
2023/04/07 07:40:16;;;;;;;;;11.00;9.00;;;;;;;;5056197;28;45240;-79
2023/04/07 07:42:42;;;;;;;;;13.50;10.00;;;;;;;;5055934;28;45299;-80
2023/04/07 07:45:07;;;;;;;;;11.25;10.00;;;;;;;;5055838;28;45890;-81
2023/04/07 07:47:32;;;;;;;;;10.75;10.25;;;;;;;;5055758;28;45308;-80
2023/04/07 07:49:57;;;;;;;;;17.00;13.75;;;;;;;;5055672;28;45444;-81
2023/04/07 07:52:23;;;;;;;;;13.00;10.25;;;;;;;;5055729;28;45424;-78
2023/04/07 07:54:49;;;;;;;;;14.75;12.50;;;;;;;;5055489;28;45443;-81
2023/04/07 07:57:14;;;;;;;;;11.50;10.00;;;;;;;;5055530;28;45490;-81
2023/04/07 07:59:40;;;;;;;;;12.50;11.50;;;;;;;;5055642;28;45307;-81
2023/04/07 08:02:05;;;;;;;;;12.25;11.75;;;;;;;;5055686;28;45392;-81
2023/04/07 08:04:30;;;;;;;;;9.75;9.75;;;;;;;;5055485;28;45438;-81
2023/04/07 08:06:56;;;;;;;;;11.00;9.25;;;;;;;;5055368;28;45612;-80
2023/04/07 08:09:21;;;;;;;;;11.75;11.75;;;;;;;;5055335;28;45384;-79
2023/04/07 08:11:47;;;;;;;;;8.50;8.50;;;;;;;;5055275;28;45390;-81
2023/04/07 08:14:12;;;;;;;;;12.50;10.50;;;;;;;;5055229;28;45443;-80
2023/04/07 08:16:38;;;;;;;;;10.75;10.25;;;;;;;;5055265;28;45339;-78
2023/04/07 08:19:03;;;;;;;;;13.25;11.75;;;;;;;;5054919;28;45379;-79
2023/04/07 08:21:28;;;;;;;;;14.50;10.50;;;;;;;;5055294;28;45488;-80
2023/04/07 08:23:53;;;;;;;;;11.50;10.75;;;;;;;;5055011;28;46162;-79
2023/04/07 08:26:20;;;;;;;;;5.25;5.00;;;;;;;;5055574;28;45290;-79
2023/04/07 08:28:45;;;;;;;;;9.00;9.00;;;;;;;;5055404;28;45469;-80
2023/04/07 08:31:10;;;;;;;;;12.25;11.50;;;;;;;;5055421;28;45454;-79
2023/04/07 08:33:35;;;;;;;;;14.75;11.50;;;;;;;;5054740;28;45438;-79
2023/04/07 08:36:00;;;;;;;;;14.50;13.50;;;;;;;;5054972;28;45584;-79
2023/04/07 08:38:26;;;;;;;;;11.00;11.00;;;;;;;;5055433;28;45451;-79
2023/04/07 08:40:55;;;;;;;;;12.75;10.25;;;;;;;;5056405;28;45508;-79
2023/04/07 08:43:21;;;;;;;;;10.25;9.25;;;;;;;;5057095;28;45462;-79
2023/04/07 08:45:47;;;;;;;;;8.00;8.00;;;;;;;;5055929;28;45525;-79
2023/04/07 08:48:16;;;;;;;;;8.75;8.75;;;;;;;;5055262;28;45424;-79
2023/04/07 08:50:43;;;;;;;;;11.75;11.75;;;;;;;;5037143;28;45310;-79
2023/04/07 08:53:11;;;;;;;;;11.75;8.25;;;;;;;;5033348;28;46686;-79
2023/04/07 08:55:36;;;;;;;;;11.00;8.00;;;;;;;;5034351;28;45442;-79
2023/04/07 08:58:02;;;;;;;;;13.25;11.00;;;;;;;;5034308;28;45892;-79
2023/04/07 09:00:28;;;;;;;;;9.75;9.25;;;;;;;;5035043;28;45461;-78
2023/04/07 09:02:53;;;;;;;;;10.25;10.25;;;;;;;;5034222;28;45550;-79
2023/04/07 09:05:20;;;;;;;;;11.50;9.50;;;;;;;;5034533;28;45329;-79
2023/04/07 09:07:45;;;;;;;;;9.50;7.00;;;;;;;;5052804;28;45361;-79
2023/04/07 09:10:10;;;;;;;;;9.50;8.50;;;;;;;;5053918;28;45371;-79
2023/04/07 09:12:36;;;;;;;;;9.75;9.75;;;;;;;;5053216;28;46591;-79
2023/04/07 09:15:01;;;;;;;;;12.00;9.50;;;;;;;;5054270;28;45332;-79
2023/04/07 09:17:27;;;;;;;;;11.25;10.00;;;;;;;;5053815;28;45417;-80
2023/04/07 09:19:57;;;;;;;;;9.25;7.50;;;;;;;;5054098;28;45455;-77
2023/04/07 09:22:35;;;;;;;;;7.00;7.00;;;;;;;;5054018;28;46791;-79
2023/04/07 09:25:10;;;;;;;;;10.50;9.75;;;;;;;;5054214;28;45443;-79
2023/04/07 09:27:35;;;;;;;;;8.75;8.75;;;;;;;;5054427;28;45442;-79
2023/04/07 09:30:10;;;;;;;;;9.00;9.00;;;;;;;;5054097;28;45288;-80
2023/04/07 09:32:40;;;;;;;;;9.75;9.75;;;;;;;;5057247;28;45741;-79
2023/04/07 09:35:05;;;;;;;;;9.00;7.50;;;;;;;;5057515;28;45409;-80
2023/04/07 09:37:30;;;;;;;;;12.25;11.25;;;;;;;;5057643;28;45553;-80
2023/04/07 09:39:55;;;;;;;;;7.00;6.25;;;;;;;;5057862;28;45481;-80
2023/04/07 09:42:21;;;;;;;;;6.50;6.50;;;;;;;;5058132;28;46364;-78
2023/04/07 09:44:46;;;;;;;;;7.75;6.00;;;;;;;;5057570;28;45358;-79
2023/04/07 09:47:12;;;;;;;;;6.75;6.75;;;;;;;;5057652;28;45493;-79
2023/04/07 09:49:53;;;;;;;;;8.50;8.00;;;;;;;;5057612;28;45414;-79
2023/04/07 09:52:22;;;;;;;;;7.75;6.75;;;;;;;;5057702;28;45557;-79
2023/04/07 09:54:48;;;;;;;;;10.50;10.00;;;;;;;;5057167;28;45440;-80
2023/04/07 09:57:13;;;;;;;;;7.00;6.25;;;;;;;;5057507;28;45303;-79
2023/04/07 09:59:41;;;;;;;;;8.50;6.25;;;;;;;;5057514;28;45378;-79
2023/04/07 10:02:07;;;;;;;;;3.25;3.00;;;;;;;;5055929;28;48529;-80
2023/04/07 10:04:32;;;;;;;;;6.25;5.50;;;;;;;;5057351;28;45237;-79
2023/04/07 10:06:57;;;;;;;;;5.75;5.00;;;;;;;;5057611;28;45311;-80
2023/04/07 10:09:24;;;;;;;;;7.00;6.25;;;;;;;;5055884;28;45495;-79
2023/04/07 10:11:50;;;;;;;;;8.25;7.00;;;;;;;;5057220;28;45664;-78
2023/04/07 10:14:16;;;;;;;;;5.00;4.75;;;;;;;;5056833;28;45272;-78
2023/04/07 10:16:43;;;;;;;;;3.00;2.75;;;;;;;;5056993;28;45374;-79
2023/04/07 10:19:08;;;;;;;;;4.00;4.00;;;;;;;;5057191;28;45581;-79
2023/04/07 10:21:35;;;;;;;;;4.50;4.50;;;;;;;;5056552;28;47731;-78
2023/04/07 10:24:07;;;;;;;;;5.75;4.75;;;;;;;;5054845;28;45613;-80
2023/04/07 10:26:34;;;;;;;;;5.00;5.00;;;;;;;;5057342;28;45687;-82
2023/04/07 10:29:03;;;;;;;;;4.00;4.00;;;;;;;;5055519;28;45390;-77
2023/04/07 10:31:29;;;;;;;;;3.50;3.00;;;;;;;;5053810;28;46114;-78
2023/04/07 10:33:55;;;;;;;;;2.50;2.50;;;;;;;;5054877;28;45446;-79
2023/04/07 10:36:21;;;;;;;;;4.25;3.25;;;;;;;;5057151;28;45394;-80
2023/04/07 10:39:05;;;;;;;;;3.25;3.25;;;;;;;;5057107;28;45420;-80
2023/04/07 10:41:31;;;;;;;;;5.00;5.00;;;;;;;;5055572;28;46319;-80
2023/04/07 10:43:56;;;;;;;;;5.50;4.50;;;;;;;;5056742;28;45810;-79
2023/04/07 10:46:21;;;;;;;;;2.00;2.00;;;;;;;;5057063;28;45587;-79
2023/04/07 10:49:07;;;;;;;;;3.00;3.00;;;;;;;;5057010;28;45632;-79
2023/04/07 10:51:32;;;;;;;;;6.00;4.00;;;;;;;;5056963;28;45951;-78
2023/04/07 10:54:19;;;;;;;;;6.25;5.75;;;;;;;;5055441;28;45410;-76
2023/04/07 10:57:02;;;;;;;;;1.50;1.00;;;;;;;;5056615;28;45413;-76
2023/04/07 10:59:28;;;;;;;;;3.00;3.00;;;;;;;;5054976;28;45553;-76
2023/04/07 11:02:23;;;;;;;;;3.00;3.00;;;;;;;;5056282;28;45386;-75
2023/04/07 11:04:48;;;;;;;;;3.75;3.75;;;;;;;;5056048;28;45363;-77
2023/04/07 11:07:14;;;;;;;;;5.50;2.75;;;;;;;;5056800;28;45421;-78
2023/04/07 11:09:40;;;;;;;;;2.00;2.00;;;;;;;;5056891;28;45436;-76
2023/04/07 11:12:05;;;;;;;;;2.50;2.50;;;;;;;;5056351;28;47082;-77
2023/04/07 11:14:32;;;;;;;;;1.00;1.00;;;;;;;;5055040;28;45299;-78
2023/04/07 11:16:58;;;;;;;;;2.00;2.00;;;;;;;;5056284;28;45418;-78
2023/04/07 11:19:23;;;;;;;;;2.75;2.75;;;;;;;;5056503;28;45411;-78
2023/04/07 11:21:48;;;;;;;;;4.00;2.00;;;;;;;;5056113;28;46365;-79
2023/04/07 11:24:32;;;;;;;;;3.50;3.00;;;;;;;;5055806;28;45417;-78
2023/04/07 11:26:58;;;;;;;;;3.50;2.00;;;;;;;;5056276;28;45335;-79
2023/04/07 11:29:27;;;;;;;;;2.75;2.00;;;;;;;;5055733;28;45442;-78
2023/04/07 11:31:53;;;;;;;;;2.00;2.00;;;;;;;;5055370;28;46405;-79
2023/04/07 11:34:18;;;;;;;;;3.00;3.00;;;;;;;;5055756;28;45334;-79
2023/04/07 11:36:43;;;;;;;;;2.00;2.00;;;;;;;;5056029;28;45348;-79
2023/04/07 11:39:20;;;;;;;;;1.75;1.75;;;;;;;;5056379;28;45465;-79
2023/04/07 11:41:46;;;;;;;;;1.00;1.00;;;;;;;;5055644;28;46360;-78
2023/04/07 11:44:11;;;;;;;;;1.00;1.00;;;;;;;;5055680;28;45343;-78
2023/04/07 11:46:57;;;;;;;;;0.25;0.25;;;;;;;;5055980;28;45322;-78
2023/04/07 11:49:23;;;;;;;;;0.25;0.25;;;;;;;;5055790;28;45506;-78
2023/04/07 11:51:56;;;;;;;;;1.75;1.00;;;;;;;;5055665;28;45466;-78
2023/04/07 11:54:21;;;;;;;;;2.75;2.75;;;;;;;;5054961;28;45383;-78
2023/04/07 11:56:46;;;;;;;;;4.00;2.00;;;;;;;;5055444;28;45330;-78
2023/04/07 11:59:19;;;;;;;;;4.00;2.25;;;;;;;;5055677;28;45434;-77
2023/04/07 12:01:45;;;;;;;;;3.00;2.00;;;;;;;;5055666;28;46415;-77
2023/04/07 12:04:12;;;;;;;;;2.00;2.00;;;;;;;;5054366;28;45317;-78
2023/04/07 12:06:37;;;;;;;;;2.00;2.00;;;;;;;;5055626;28;45280;-78
2023/04/07 12:09:04;;;;;;;;;2.50;2.00;;;;;;;;5055636;28;45360;-78
2023/04/07 12:11:29;;;;;;;;;3.50;2.50;;;;;;;;5055223;28;45442;-78
2023/04/07 12:13:55;;;;;;;;;4.25;2.00;;;;;;;;5053800;28;45614;-78
2023/04/07 12:16:21;;;;;;;;;3.00;2.00;;;;;;;;5055413;28;45406;-78
2023/04/07 12:18:47;;;;;;;;;2.25;2.25;;;;;;;;5054299;28;45497;-78
2023/04/07 12:21:12;;;;;;;;;1.50;1.50;;;;;;;;5055153;28;45883;-78
2023/04/07 12:23:37;;;;;;;;;2.75;1.50;;;;;;;;5055544;28;45461;-78
2023/04/07 12:26:02;;;;;;;;;1.00;1.00;;;;;;;;5054865;28;45394;-78
2023/04/07 12:28:28;;;;;;;;;1.50;1.50;;;;;;;;5054432;28;45475;-77
2023/04/07 12:30:53;;;;;;;;;1.00;1.00;;;;;;;;5055254;28;45586;-79
2023/04/07 12:33:19;;;;;;;;;3.00;3.00;;;;;;;;5053955;28;45327;-78
2023/04/07 12:35:45;;;;;;;;;1.50;1.50;;;;;;;;5055188;28;45429;-78
2023/04/07 12:38:10;;;;;;;;;2.75;2.00;;;;;;;;5055048;28;45432;-78
2023/04/07 12:40:36;;;;;;;;;1.00;1.00;;;;;;;;5054978;28;45432;-77
2023/04/07 12:43:02;;;;;;;;;1.50;1.50;;;;;;;;5055676;28;45480;-78
2023/04/07 12:45:29;;;;;;;;;2.75;2.75;;;;;;;;5054871;28;45433;-78
2023/04/07 12:47:55;;;;;;;;;1.25;1.25;;;;;;;;5035266;28;45355;-78
2023/04/07 12:50:20;;;;;;;;;0.00;0.00;;;;;;;;5035078;28;45430;-78
2023/04/07 12:52:46;;;;;;;;;1.75;0.75;;;;;;;;5034622;28;45750;-78
2023/04/07 12:55:13;;;;;;;;;1.75;1.75;;;;;;;;5034738;28;45363;-77
2023/04/07 12:57:38;;;;;;;;;0.75;0.75;;;;;;;;5036104;28;45375;-77
2023/04/07 13:00:04;;;;;;;;;1.00;1.00;;;;;;;;5054678;28;45329;-76
2023/04/07 13:02:29;;;;;;;;;2.00;1.00;;;;;;;;5053803;28;45355;-78
2023/04/07 13:04:55;;;;;;;;;0.75;0.75;;;;;;;;5054731;28;45328;-76
2023/04/07 13:07:21;;;;;;;;;1.50;1.00;;;;;;;;5044966;28;45686;-77
2023/04/07 13:09:46;;;;;;;;;3.00;3.00;;;;;;;;5052485;28;46298;-77
2023/04/07 13:12:12;;;;;;;;;2.50;1.75;;;;;;;;5055460;28;45583;-77
2023/04/07 13:14:40;;;;;;;;;3.00;3.00;;;;;;;;5054178;28;45334;-78
2023/04/07 13:17:07;;;;;;;;;2.75;1.75;;;;;;;;5055066;28;45461;-77
2023/04/07 13:19:32;;;;;;;;;1.75;1.75;;;;;;;;5056694;28;46337;-78
2023/04/07 13:21:57;;;;;;;;;2.00;2.00;;;;;;;;5056459;28;45530;-77
2023/04/07 13:24:23;;;;;;;;;2.25;2.25;;;;;;;;5055673;28;45395;-78
2023/04/07 13:26:49;;;;;;;;;3.00;2.00;;;;;;;;5055380;28;45438;-78
2023/04/07 13:29:14;;;;;;;;;0.50;0.50;;;;;;;;5057531;28;45518;-77
2023/04/07 13:31:39;;;;;;;;;1.00;1.00;;;;;;;;5040825;28;45497;-77
2023/04/07 13:34:05;;;;;;;;;2.75;2.75;;;;;;;;5053033;28;45932;-77
2023/04/07 13:36:30;;;;;;;;;3.00;2.25;;;;;;;;5053296;28;45352;-78
2023/04/07 13:38:56;;;;;;;;;3.50;1.00;;;;;;;;5057126;28;45317;-78
2023/04/07 13:41:21;;;;;;;;;1.25;1.25;;;;;;;;5055091;28;45407;-77
2023/04/07 13:43:47;;;;;;;;;2.50;2.00;;;;;;;;5055167;28;45512;-78
2023/04/07 13:46:16;;;;;;;;;3.00;2.00;;;;;;;;5046828;28;45837;-78
2023/04/07 13:48:42;;;;;;;;;3.00;3.00;;;;;;;;5053671;28;46186;-77
2023/04/07 13:51:07;;;;;;;;;1.00;1.00;;;;;;;;5056151;28;45490;-77
2023/04/07 13:53:32;;;;;;;;;1.00;1.00;;;;;;;;5056877;28;45554;-78
2023/04/07 13:55:57;;;;;;;;;0.00;0.00;;;;;;;;5053249;28;45404;-77
2023/04/07 13:58:23;;;;;;;;;1.00;0.75;;;;;;;;5048217;28;45936;-77
2023/04/07 14:00:49;;;;;;;;;0.50;0.50;;;;;;;;5048288;28;45994;-78
2023/04/07 14:03:14;;;;;;;;;1.00;1.00;;;;;;;;5057001;28;45482;-77
2023/04/07 14:05:39;;;;;;;;;2.00;1.00;;;;;;;;5057236;28;45342;-78
2023/04/07 14:08:04;;;;;;;;;1.00;1.00;;;;;;;;5056347;28;45477;-77
2023/04/07 14:10:32;;;;;;;;;1.50;1.50;;;;;;;;5057003;28;45529;-78
2023/04/07 14:12:57;;;;;;;;;2.50;2.50;;;;;;;;5056840;28;45354;-77
2023/04/07 14:15:22;;;;;;;;;2.00;2.00;;;;;;;;5056594;28;45329;-77
2023/04/07 14:17:48;;;;;;;;;2.00;0.75;;;;;;;;5056114;28;46654;-77
2023/04/07 14:20:13;;;;;;;;;1.00;1.00;;;;;;;;5056835;28;45394;-78
2023/04/07 14:22:38;;;;;;;;;1.50;1.25;;;;;;;;5056073;28;45302;-78
2023/04/07 14:25:04;;;;;;;;;0.00;0.00;;;;;;;;5056705;28;45683;-77
2023/04/07 14:27:29;;;;;;;;;0.00;0.00;;;;;;;;5056287;28;45604;-77
2023/04/07 14:29:56;;;;;;;;;0.00;0.00;;;;;;;;5053614;28;45459;-76
2023/04/07 14:32:21;;;;;;;;;1.50;0.25;;;;;;;;5043338;28;45333;-77